首页
METAR-TAF:

METAR-TAF

机场 :

利物浦约翰·列侬机场

利物浦, 英格兰

纬度: 53-20N, 经度: 002-51W, 海拔: 26米

当前天气观测

该预报发布于28分钟前的04:20 UTC
风速6节,风向东转东北
温度 -1°C
湿度 100%
气压 1015 hPa
能見度: 0200
冻雾

METAR: EGGP 190420Z 06006KT 0200 R27/M0050 FZFG VV/// M01/M01 Q1015

时间: 04:48 (04:48 UTC)

预报

该预报发布于5小时和50分钟前的22:58 UTC
预报有效从19日的 00点(UTC)到 19日的 24点(UTC)
风速3节,风向多变
能見度: 8000
少量云层高于3000英尺
短暂存在
从 19日的 00点(UTC)到 19日的 02点(UTC)
能見度: 3000
轻雾
几率 30% :
短暂存在
从 19日的 00点(UTC)到 19日的 02点(UTC)
能見度: 0300
雾, 冻雾
成为
从 19日的 02点(UTC)到 19日的 05点(UTC)
能見度: 0100
冻雾
几率 30% :
短暂存在
从 19日的 05点(UTC)到 19日的 08点(UTC)
能見度: 1500
散云层高于100英尺
轻雾
成为
从 19日的 08点(UTC)到 19日的 11点(UTC)
风速10节,风向东南
能見度: 6000
多云层高于300英尺
成为
从 19日的 11点(UTC)到 19日的 13点(UTC)
能见度10公里或以上
多云层高于800英尺
成为
从 19日的 13点(UTC)到 19日的 15点(UTC)
少量云层高于2000英尺

TAF: EGGP 182258Z 1900/1924 VRB03KT 8000 FEW030 TEMPO 1900/1902 3000 BR PROB30 TEMPO 1900/1902 0300 FG FZFG VV/// BECMG 1902/1905 0100 FZFG VV/// PROB30 TEMPO 1905/1908 1500 BR SCT001 BECMG 1908/1911 14010KT 6000 NSW BKN003 BECMG 1911/1913 9999 BKN008 BECMG 1913/1915 FEW020

超过4000个机场的气象观测和天气预报(METAR&TAF报告)。

可查询的气象台以黄色和红色小点在地图上表示。

将鼠标移到小点上方,可查看气象台名称。

然后点击查看天气观测和预报。

如需切换地图:点击带黑十字的绿色按钮放大地图;点击带横线的绿色按钮缩小地图;或者点击绿色箭头查看邻近地区的地图。


METAR-TAF: